sensor_id;sensor_type;location;lat;lon;timestamp;pressure;altitude;pressure_sealevel;temperature;humidity
45253;BME280;63171;50.520;30.486;2023-06-26T00:00:24;99467.94;;;20.53;100.00
45253;BME280;63171;50.520;30.486;2023-06-26T00:02:51;99466.63;;;20.57;100.00
45253;BME280;63171;50.520;30.486;2023-06-26T00:03:42;99467.13;;;20.61;100.00
45253;BME280;63171;50.520;30.486;2023-06-26T00:04:32;99462.09;;;20.66;100.00
45253;BME280;63171;50.520;30.486;2023-06-26T00:05:24;99470.44;;;20.71;100.00
45253;BME280;63171;50.520;30.486;2023-06-26T00:06:14;99462.25;;;20.73;100.00
45253;BME280;63171;50.520;30.486;2023-06-26T00:07:05;99467.06;;;20.69;100.00
45253;BME280;63171;50.520;30.486;2023-06-26T00:07:55;99468.94;;;20.60;100.00
45253;BME280;63171;50.520;30.486;2023-06-26T00:08:45;99461.97;;;20.59;100.00
45253;BME280;63171;50.520;30.486;2023-06-26T00:09:36;99467.78;;;20.55;100.00
45253;BME280;63171;50.520;30.486;2023-06-26T00:10:26;99470.25;;;20.56;100.00
45253;BME280;63171;50.520;30.486;2023-06-26T00:11:16;99473.09;;;20.55;100.00
45253;BME280;63171;50.520;30.486;2023-06-26T00:12:06;99468.78;;;20.54;100.00
45253;BME280;63171;50.520;30.486;2023-06-26T00:12:57;99467.63;;;20.48;100.00
45253;BME280;63171;50.520;30.486;2023-06-26T00:13:47;99462.31;;;20.48;100.00
45253;BME280;63171;50.520;30.486;2023-06-26T00:14:39;99469.94;;;20.51;100.00
45253;BME280;63171;50.520;30.486;2023-06-26T00:15:29;99467.78;;;20.55;100.00
45253;BME280;63171;50.520;30.486;2023-06-26T00:16:20;99459.13;;;20.61;100.00
45253;BME280;63171;50.520;30.486;2023-06-26T00:17:11;99461.28;;;20.65;100.00
45253;BME280;63171;50.520;30.486;2023-06-26T00:18:02;99466.75;;;20.64;100.00
45253;BME280;63171;50.520;30.486;2023-06-26T00:18:53;99464.75;;;20.66;100.00
45253;BME280;63171;50.520;30.486;2023-06-26T00:19:44;99465.59;;;20.66;100.00
45253;BME280;63171;50.520;30.486;2023-06-26T00:20:33;99469.06;;;20.67;100.00
45253;BME280;63171;50.520;30.486;2023-06-26T00:21:23;99462.94;;;20.66;100.00
45253;BME280;63171;50.520;30.486;2023-06-26T00:22:14;99467.25;;;20.67;100.00
45253;BME280;63171;50.520;30.486;2023-06-26T00:23:04;99464.94;;;20.73;100.00
45253;BME280;63171;50.520;30.486;2023-06-26T00:23:57;99463.09;;;20.73;100.00
45253;BME280;63171;50.520;30.486;2023-06-26T00:24:46;99470.44;;;20.71;100.00
45253;BME280;63171;50.520;30.486;2023-06-26T00:25:37;99467.75;;;20.71;100.00
45253;BME280;63171;50.520;30.486;2023-06-26T00:26:27;99464.28;;;20.71;100.00
45253;BME280;63171;50.520;30.486;2023-06-26T00:27:18;99461.75;;;20.69;100.00
45253;BME280;63171;50.520;30.486;2023-06-26T00:28:08;99463.44;;;20.70;100.00
45253;BME280;63171;50.520;30.486;2023-06-26T00:29:01;99461.91;;;20.76;100.00
45253;BME280;63171;50.520;30.486;2023-06-26T00:29:52;99462.75;;;20.76;100.00
45253;BME280;63171;50.520;30.486;2023-06-26T00:30:43;99454.09;;;20.74;100.00
45253;BME280;63171;50.520;30.486;2023-06-26T00:31:33;99457.44;;;20.76;99.93
45253;BME280;63171;50.520;30.486;2023-06-26T00:32:25;99462.09;;;20.74;99.87
45253;BME280;63171;50.520;30.486;2023-06-26T00:33:15;99461.44;;;20.72;99.50
45253;BME280;63171;50.520;30.486;2023-06-26T00:34:06;99457.78;;;20.73;99.98
45253;BME280;63171;50.520;30.486;2023-06-26T00:34:56;99464.56;;;20.76;99.71
45253;BME280;63171;50.520;30.486;2023-06-26T00:35:47;99458.13;;;20.70;99.78
45253;BME280;63171;50.520;30.486;2023-06-26T00:36:36;99455.59;;;20.69;99.30
45253;BME280;63171;50.520;30.486;2023-06-26T00:37:27;99458.59;;;20.65;99.42
45253;BME280;63171;50.520;30.486;2023-06-26T00:38:17;99452.81;;;20.70;99.72
45253;BME280;63171;50.520;30.486;2023-06-26T00:39:07;99455.94;;;20.74;99.48
45253;BME280;63171;50.520;30.486;2023-06-26T00:39:58;99449.78;;;20.73;99.16
45253;BME280;63171;50.520;30.486;2023-06-26T00:40:49;99448.78;;;20.74;99.26
45253;BME280;63171;50.520;30.486;2023-06-26T00:41:41;99443.13;;;20.77;99.41
45253;BME280;63171;50.520;30.486;2023-06-26T00:42:31;99448.25;;;20.79;99.10
45253;BME280;63171;50.520;30.486;2023-06-26T00:43:21;99453.44;;;20.72;99.06
45253;BME280;63171;50.520;30.486;2023-06-26T00:44:12;99448.31;;;20.62;98.95
45253;BME280;63171;50.520;30.486;2023-06-26T00:45:02;99444.34;;;20.58;98.75
45253;BME280;63171;50.520;30.486;2023-06-26T00:45:54;99449.84;;;20.57;98.70
45253;BME280;63171;50.520;30.486;2023-06-26T00:46:43;99448.31;;;20.54;98.70
45253;BME280;63171;50.520;30.486;2023-06-26T00:47:35;99447.50;;;20.54;98.56
45253;BME280;63171;50.520;30.486;2023-06-26T00:48:25;99448.31;;;20.54;98.62
45253;BME280;63171;50.520;30.486;2023-06-26T00:49:15;99446.34;;;20.48;98.64
45253;BME280;63171;50.520;30.486;2023-06-26T00:50:06;99449.19;;;20.47;98.46
45253;BME280;63171;50.520;30.486;2023-06-26T00:51:16;99447.19;;;20.49;98.62
45253;BME280;63171;50.520;30.486;2023-06-26T00:52:07;99447.50;;;20.54;98.65
45253;BME280;63171;50.520;30.486;2023-06-26T00:52:58;99446.16;;;20.58;98.65
45253;BME280;63171;50.520;30.486;2023-06-26T00:53:49;99440.34;;;20.54;98.66
45253;BME280;63171;50.520;30.486;2023-06-26T00:54:41;99448.97;;;20.56;98.58
45253;BME280;63171;50.520;30.486;2023-06-26T00:55:32;99450.50;;;20.59;98.61
45253;BME280;63171;50.520;30.486;2023-06-26T00:56:23;99448.84;;;20.58;98.52
45253;BME280;63171;50.520;30.486;2023-06-26T00:57:13;99457.97;;;20.55;98.56
45253;BME280;63171;50.520;30.486;2023-06-26T00:58:03;99442.50;;;20.51;98.44
45253;BME280;63171;50.520;30.486;2023-06-26T00:58:54;99447.00;;;20.50;98.33
45253;BME280;63171;50.520;30.486;2023-06-26T00:59:44;99447.19;;;20.49;98.45
45253;BME280;63171;50.520;30.486;2023-06-26T01:00:36;99447.84;;;20.51;98.43
45253;BME280;63171;50.520;30.486;2023-06-26T01:01:26;99445.53;;;20.48;97.84
45253;BME280;63171;50.520;30.486;2023-06-26T01:02:17;99448.84;;;20.50;97.91
45253;BME280;63171;50.520;30.486;2023-06-26T01:03:09;99451.31;;;20.51;97.87
45253;BME280;63171;50.520;30.486;2023-06-26T01:03:59;99445.84;;;20.53;98.11
45253;BME280;63171;50.520;30.486;2023-06-26T01:04:50;99454.84;;;20.44;97.87
45253;BME280;63171;50.520;30.486;2023-06-26T01:05:41;99447.66;;;20.28;97.36
45253;BME280;63171;50.520;30.486;2023-06-26T01:06:34;99449.34;;;20.13;97.33
45253;BME280;63171;50.520;30.486;2023-06-26T01:07:26;99457.34;;;20.04;97.20
45253;BME280;63171;50.520;30.486;2023-06-26T01:08:15;99456.16;;;19.99;97.42
45253;BME280;63171;50.520;30.486;2023-06-26T01:09:05;99460.97;;;19.95;97.24
45253;BME280;63171;50.520;30.486;2023-06-26T01:09:56;99456.63;;;19.86;97.36
45253;BME280;63171;50.520;30.486;2023-06-26T01:10:48;99454.81;;;19.87;97.79
45253;BME280;63171;50.520;30.486;2023-06-26T01:11:38;99456.47;;;19.88;97.61
45253;BME280;63171;50.520;30.486;2023-06-26T01:12:28;99459.31;;;19.78;97.92
45253;BME280;63171;50.520;30.486;2023-06-26T01:13:20;99456.28;;;19.73;97.95
45253;BME280;63171;50.520;30.486;2023-06-26T01:14:10;99458.78;;;19.74;98.17
45253;BME280;63171;50.520;30.486;2023-06-26T01:15:01;99460.31;;;19.77;98.45
45253;BME280;63171;50.520;30.486;2023-06-26T01:15:53;99462.75;;;19.70;98.45
45253;BME280;63171;50.520;30.486;2023-06-26T01:16:45;99452.78;;;19.56;98.21
45253;BME280;63171;50.520;30.486;2023-06-26T01:17:37;99457.03;;;19.49;98.40
45253;BME280;63171;50.520;30.486;2023-06-26T01:18:35;99462.22;;;19.51;98.95
45253;BME280;63171;50.520;30.486;2023-06-26T01:19:28;99459.56;;;19.51;98.85
45253;BME280;63171;50.520;30.486;2023-06-26T01:20:19;99462.03;;;19.52;99.64
45253;BME280;63171;50.520;30.486;2023-06-26T01:21:13;99454.53;;;19.47;99.46
45253;BME280;63171;50.520;30.486;2023-06-26T01:22:11;99462.84;;;19.44;99.67
45253;BME280;63171;50.520;30.486;2023-06-26T01:23:10;99457.03;;;19.41;99.71
45253;BME280;63171;50.520;30.486;2023-06-26T01:24:12;99460.84;;;19.38;100.00
45253;BME280;63171;50.520;30.486;2023-06-26T01:25:13;99454.38;;;19.41;100.00
45253;BME280;63171;50.520;30.486;2023-06-26T01:26:15;99450.88;;;19.40;100.00
45253;BME280;63171;50.520;30.486;2023-06-26T01:27:06;99455.38;;;19.40;100.00
45253;BME280;63171;50.520;30.486;2023-06-26T01:27:58;99463.50;;;19.46;100.00
45253;BME280;63171;50.520;30.486;2023-06-26T01:28:50;99457.03;;;19.49;100.00
45253;BME280;63171;50.520;30.486;2023-06-26T01:29:42;99461.19;;;19.43;100.00
45253;BME280;63171;50.520;30.486;2023-06-26T01:30:34;99466.31;;;19.45;100.00
45253;BME280;63171;50.520;30.486;2023-06-26T01:31:28;99455.38;;;19.40;100.00
45253;BME280;63171;50.520;30.486;2023-06-26T01:32:20;99461.69;;;19.39;100.00
45253;BME280;63171;50.520;30.486;2023-06-26T01:33:12;99467.16;;;19.45;100.00
45253;BME280;63171;50.520;30.486;2023-06-26T01:34:21;99463.03;;;19.51;100.00
45253;BME280;63171;50.520;30.486;2023-06-26T01:35:13;99466.53;;;19.52;100.00
45253;BME280;63171;50.520;30.486;2023-06-26T01:36:04;99459.22;;;19.54;100.00
45253;BME280;63171;50.520;30.486;2023-06-26T01:36:55;99464.72;;;19.60;100.00
45253;BME280;63171;50.520;30.486;2023-06-26T01:37:45;99461.78;;;19.63;100.00
45253;BME280;63171;50.520;30.486;2023-06-26T01:38:36;99464.91;;;19.59;100.00
45253;BME280;63171;50.520;30.486;2023-06-26T01:39:25;99463.06;;;19.59;100.00
45253;BME280;63171;50.520;30.486;2023-06-26T01:40:16;99454.31;;;19.67;100.00
45253;BME280;63171;50.520;30.486;2023-06-26T01:41:06;99459.44;;;19.68;100.00
45253;BME280;63171;50.520;30.486;2023-06-26T01:41:59;99456.47;;;19.71;100.00
45253;BME280;63171;50.520;30.486;2023-06-26T01:42:49;99459.63;;;19.67;100.00
45253;BME280;63171;50.520;30.486;2023-06-26T01:43:46;99458.28;;;19.71;100.00
45253;BME280;63171;50.520;30.486;2023-06-26T01:44:44;99456.25;;;19.57;100.00
45253;BME280;63171;50.520;30.486;2023-06-26T01:45:37;99448.91;;;19.42;100.00
45253;BME280;63171;50.520;30.486;2023-06-26T01:46:33;99452.88;;;19.46;100.00
45253;BME280;63171;50.520;30.486;2023-06-26T01:47:28;99452.56;;;19.49;100.00
45253;BME280;63171;50.520;30.486;2023-06-26T01:48:25;99449.44;;;19.54;100.00
45253;BME280;63171;50.520;30.486;2023-06-26T01:49:29;99453.09;;;19.61;100.00
45253;BME280;63171;50.520;30.486;2023-06-26T01:50:22;99454.09;;;19.60;100.00
45253;BME280;63171;50.520;30.486;2023-06-26T01:51:16;99450.59;;;19.52;100.00
45253;BME280;63171;50.520;30.486;2023-06-26T01:52:10;99449.44;;;19.54;100.00
45253;BME280;63171;50.520;30.486;2023-06-26T01:53:08;99455.94;;;19.60;100.00
45253;BME280;63171;50.520;30.486;2023-06-26T01:54:00;99454.94;;;19.61;100.00
45253;BME280;63171;50.520;30.486;2023-06-26T01:54:58;99449.78;;;19.59;100.00
45253;BME280;63171;50.520;30.486;2023-06-26T01:55:54;99449.13;;;19.57;100.00
45253;BME280;63171;50.520;30.486;2023-06-26T01:56:49;99456.09;;;19.58;100.00
45253;BME280;63171;50.520;30.486;2023-06-26T01:57:41;99451.41;;;19.52;100.00
45253;BME280;63171;50.520;30.486;2023-06-26T01:58:33;99449.75;;;19.51;100.00
45253;BME280;63171;50.520;30.486;2023-06-26T01:59:25;99447.78;;;19.53;100.00
45253;BME280;63171;50.520;30.486;2023-06-26T02:00:20;99444.91;;;19.46;100.00
45253;BME280;63171;50.520;30.486;2023-06-26T02:01:11;99439.78;;;19.45;100.00
45253;BME280;63171;50.520;30.486;2023-06-26T02:02:02;99442.78;;;19.50;100.00
45253;BME280;63171;50.520;30.486;2023-06-26T02:02:56;99447.47;;;19.56;100.00
45253;BME280;63171;50.520;30.486;2023-06-26T02:03:48;99445.97;;;19.62;100.00
45253;BME280;63171;50.520;30.486;2023-06-26T02:04:38;99449.47;;;19.62;100.00
45253;BME280;63171;50.520;30.486;2023-06-26T02:05:29;99447.47;;;19.56;100.00
45253;BME280;63171;50.520;30.486;2023-06-26T02:06:21;99454.25;;;19.51;100.00
45253;BME280;63171;50.520;30.486;2023-06-26T02:07:14;99446.94;;;19.53;100.00
45253;BME280;63171;50.520;30.486;2023-06-26T02:08:04;99447.06;;;19.43;100.00
45253;BME280;63171;50.520;30.486;2023-06-26T02:08:55;99442.25;;;19.38;100.00
45253;BME280;63171;50.520;30.486;2023-06-26T02:09:46;99446.03;;;19.36;99.97
45253;BME280;63171;50.520;30.486;2023-06-26T02:10:36;99430.47;;;19.41;100.00
45253;BME280;63171;50.520;30.486;2023-06-26T02:11:26;99442.09;;;19.48;100.00
45253;BME280;63171;50.520;30.486;2023-06-26T02:12:17;99436.31;;;19.53;100.00
45253;BME280;63171;50.520;30.486;2023-06-26T02:13:08;99439.50;;;19.56;100.00
45253;BME280;63171;50.520;30.486;2023-06-26T02:13:58;99441.50;;;19.62;100.00
45253;BME280;63171;50.520;30.486;2023-06-26T02:14:49;99429.56;;;19.66;100.00
45253;BME280;63171;50.520;30.486;2023-06-26T02:15:40;99431.53;;;19.56;100.00
45253;BME280;63171;50.520;30.486;2023-06-26T02:16:31;99432.66;;;19.54;99.97
45253;BME280;63171;50.520;30.486;2023-06-26T02:17:21;99433.81;;;19.51;100.00
45253;BME280;63171;50.520;30.486;2023-06-26T02:18:12;99430.84;;;19.54;99.95
45253;BME280;63171;50.520;30.486;2023-06-26T02:19:01;99426.22;;;19.56;99.93
45253;BME280;63171;50.520;30.486;2023-06-26T02:19:52;99424.56;;;19.55;99.97
45253;BME280;63171;50.520;30.486;2023-06-26T02:20:42;99427.97;;;19.47;99.57
45253;BME280;63171;50.520;30.486;2023-06-26T02:21:33;99435.63;;;19.42;99.58
45253;BME280;63171;50.520;30.486;2023-06-26T02:22:25;99429.47;;;19.42;99.66
45253;BME280;63171;50.520;30.486;2023-06-26T02:23:17;99428.81;;;19.40;99.65
45253;BME280;63171;50.520;30.486;2023-06-26T02:24:07;99428.97;;;19.46;99.81
45253;BME280;63171;50.520;30.486;2023-06-26T02:24:59;99433.00;;;19.51;100.00
45253;BME280;63171;50.520;30.486;2023-06-26T02:25:48;99432.19;;;19.58;99.89
45253;BME280;63171;50.520;30.486;2023-06-26T02:26:39;99436.16;;;19.62;99.97
45253;BME280;63171;50.520;30.486;2023-06-26T02:27:29;99434.53;;;19.69;100.00
45253;BME280;63171;50.520;30.486;2023-06-26T02:28:21;99434.53;;;19.69;100.00
45253;BME280;63171;50.520;30.486;2023-06-26T02:29:11;99431.84;;;19.61;99.51
45253;BME280;63171;50.520;30.486;2023-06-26T02:30:03;99427.72;;;19.67;99.67
45253;BME280;63171;50.520;30.486;2023-06-26T02:30:54;99426.22;;;19.72;99.70
45253;BME280;63171;50.520;30.486;2023-06-26T02:31:44;99431.22;;;19.75;99.55
45253;BME280;63171;50.520;30.486;2023-06-26T02:32:34;99435.22;;;19.80;99.71
45253;BME280;63171;50.520;30.486;2023-06-26T02:33:24;99428.56;;;19.84;99.75
45253;BME280;63171;50.520;30.486;2023-06-26T02:34:15;99427.41;;;19.86;99.49
45253;BME280;63171;50.520;30.486;2023-06-26T02:35:05;99427.41;;;19.86;99.13
45253;BME280;63171;50.520;30.486;2023-06-26T02:35:56;99428.88;;;19.89;99.25
45253;BME280;63171;50.520;30.486;2023-06-26T02:36:46;99419.09;;;19.89;99.24
45253;BME280;63171;50.520;30.486;2023-06-26T02:37:37;99421.59;;;19.83;99.02
45253;BME280;63171;50.520;30.486;2023-06-26T02:38:27;99423.25;;;19.84;98.97
45253;BME280;63171;50.520;30.486;2023-06-26T02:39:18;99421.63;;;19.91;98.90
45253;BME280;63171;50.520;30.486;2023-06-26T02:40:10;99427.91;;;19.82;98.56
45253;BME280;63171;50.520;30.486;2023-06-26T02:41:01;99421.09;;;19.87;98.54
45253;BME280;63171;50.520;30.486;2023-06-26T02:41:51;99423.59;;;19.81;98.42
45253;BME280;63171;50.520;30.486;2023-06-26T02:42:44;99419.63;;;19.76;98.14
45253;BME280;63171;50.520;30.486;2023-06-26T02:43:35;99415.28;;;19.84;98.14
45253;BME280;63171;50.520;30.486;2023-06-26T02:44:26;99418.78;;;19.84;97.89
45253;BME280;63171;50.520;30.486;2023-06-26T02:45:16;99416.44;;;19.89;97.78
45253;BME280;63171;50.520;30.486;2023-06-26T02:46:07;99422.75;;;19.88;97.63
45253;BME280;63171;50.520;30.486;2023-06-26T02:46:57;99420.28;;;19.78;97.67
45253;BME280;63171;50.520;30.486;2023-06-26T02:47:47;99413.31;;;19.77;97.44
45253;BME280;63171;50.520;30.486;2023-06-26T02:48:37;99414.97;;;19.78;97.41
45253;BME280;63171;50.520;30.486;2023-06-26T02:49:28;99414.28;;;19.85;97.30
45253;BME280;63171;50.520;30.486;2023-06-26T02:50:18;99419.25;;;19.88;97.55
45253;BME280;63171;50.520;30.486;2023-06-26T02:51:27;99416.78;;;19.86;97.10
45253;BME280;63171;50.520;30.486;2023-06-26T02:52:19;99412.97;;;19.97;97.30
45253;BME280;63171;50.520;30.486;2023-06-26T02:53:10;99412.63;;;20.00;97.21
45253;BME280;63171;50.520;30.486;2023-06-26T02:54:02;99412.97;;;20.05;97.01
45253;BME280;63171;50.520;30.486;2023-06-26T02:54:53;99413.78;;;20.14;97.08
45253;BME280;63171;50.520;30.486;2023-06-26T02:55:42;99413.94;;;20.12;96.99
45253;BME280;63171;50.520;30.486;2023-06-26T02:56:33;99408.78;;;20.02;96.81
45253;BME280;63171;50.520;30.486;2023-06-26T02:57:24;99413.13;;;19.95;96.31
45253;BME280;63171;50.520;30.486;2023-06-26T02:58:15;99412.28;;;20.03;96.61
45253;BME280;63171;50.520;30.486;2023-06-26T02:59:06;99410.97;;;20.07;96.27
45253;BME280;63171;50.520;30.486;2023-06-26T02:59:57;99408.28;;;20.15;96.58
45253;BME280;63171;50.520;30.486;2023-06-26T03:00:47;99407.97;;;20.18;96.17
45253;BME280;63171;50.520;30.486;2023-06-26T03:01:40;99414.59;;;20.22;96.11
45253;BME280;63171;50.520;30.486;2023-06-26T03:02:30;99411.94;;;20.22;96.14
45253;BME280;63171;50.520;30.486;2023-06-26T03:03:20;99414.28;;;20.17;95.99
45253;BME280;63171;50.520;30.486;2023-06-26T03:04:10;99408.47;;;20.14;95.86
45253;BME280;63171;50.520;30.486;2023-06-26T03:05:00;99415.13;;;20.10;95.67
45253;BME280;63171;50.520;30.486;2023-06-26T03:05:53;99417.59;;;20.11;95.20
45253;BME280;63171;50.520;30.486;2023-06-26T03:06:43;99415.13;;;20.10;95.45
45253;BME280;63171;50.520;30.486;2023-06-26T03:07:34;99411.63;;;20.09;95.49
45253;BME280;63171;50.520;30.486;2023-06-26T03:08:24;99415.13;;;20.18;95.33
45253;BME280;63171;50.520;30.486;2023-06-26T03:09:14;99409.47;;;20.21;95.23
45253;BME280;63171;50.520;30.486;2023-06-26T03:10:06;99416.44;;;20.22;95.31
45253;BME280;63171;50.520;30.486;2023-06-26T03:10:57;99408.81;;;20.19;95.02
45253;BME280;63171;50.520;30.486;2023-06-26T03:11:47;99409.63;;;20.19;94.81
45253;BME280;63171;50.520;30.486;2023-06-26T03:12:37;99408.59;;;20.28;94.95
45253;BME280;63171;50.520;30.486;2023-06-26T03:13:27;99413.25;;;20.34;95.05
45253;BME280;63171;50.520;30.486;2023-06-26T03:14:19;99410.91;;;20.40;94.70
45253;BME280;63171;50.520;30.486;2023-06-26T03:15:09;99413.56;;;20.40;94.51
45253;BME280;63171;50.520;30.486;2023-06-26T03:16:01;99419.09;;;20.46;94.46
45253;BME280;63171;50.520;30.486;2023-06-26T03:16:50;99410.28;;;20.46;94.30
45253;BME280;63171;50.520;30.486;2023-06-26T03:17:42;99405.75;;;20.54;94.61
45253;BME280;63171;50.520;30.486;2023-06-26T03:18:36;99409.41;;;20.53;94.08
45253;BME280;63171;50.520;30.486;2023-06-26T03:19:27;99413.25;;;20.51;94.06
45253;BME280;63171;50.520;30.486;2023-06-26T03:20:39;99418.09;;;20.47;93.64
45253;BME280;63171;50.520;30.486;2023-06-26T03:21:32;99405.28;;;20.51;93.89
45253;BME280;63171;50.520;30.486;2023-06-26T03:22:21;99412.72;;;20.55;93.79
45253;BME280;63171;50.520;30.486;2023-06-26T03:23:13;99419.41;;;20.51;93.43
45253;BME280;63171;50.520;30.486;2023-06-26T03:24:03;99419.09;;;20.46;93.18
45253;BME280;63171;50.520;30.486;2023-06-26T03:24:53;99415.59;;;20.46;92.96
45253;BME280;63171;50.520;30.486;2023-06-26T03:25:45;99416.59;;;20.45;93.02
45253;BME280;63171;50.520;30.486;2023-06-26T03:26:56;99417.75;;;20.42;92.81
45253;BME280;63171;50.520;30.486;2023-06-26T03:27:46;99420.28;;;20.44;92.65
45253;BME280;63171;50.520;30.486;2023-06-26T03:28:38;99420.28;;;20.44;92.65
45253;BME280;63171;50.520;30.486;2023-06-26T03:29:29;99419.25;;;20.45;92.82
45253;BME280;63171;50.520;30.486;2023-06-26T03:30:20;99421.06;;;20.36;92.37
45253;BME280;63171;50.520;30.486;2023-06-26T03:31:13;99420.06;;;20.29;92.15
45253;BME280;63171;50.520;30.486;2023-06-26T03:32:04;99413.25;;;20.26;92.40
45253;BME280;63171;50.520;30.486;2023-06-26T03:32:55;99417.91;;;20.24;91.99
45253;BME280;63171;50.520;30.486;2023-06-26T03:33:46;99420.09;;;20.13;91.82
45253;BME280;63171;50.520;30.486;2023-06-26T03:34:35;99412.59;;;20.16;92.21
45253;BME280;63171;50.520;30.486;2023-06-26T03:35:28;99415.25;;;20.16;92.11
45253;BME280;63171;50.520;30.486;2023-06-26T03:36:17;99412.28;;;20.03;92.17
45253;BME280;63171;50.520;30.486;2023-06-26T03:37:08;99406.31;;;19.93;92.17
45253;BME280;63171;50.520;30.486;2023-06-26T03:37:58;99415.44;;;19.82;91.99
45253;BME280;63171;50.520;30.486;2023-06-26T03:38:50;99419.25;;;19.88;92.20
45253;BME280;63171;50.520;30.486;2023-06-26T03:39:43;99413.47;;;19.84;92.25
45253;BME280;63171;50.520;30.486;2023-06-26T03:40:33;99416.97;;;19.76;92.48
45253;BME280;63171;50.520;30.486;2023-06-26T03:41:23;99410.13;;;19.82;92.72
45253;BME280;63171;50.520;30.486;2023-06-26T03:42:15;99422.91;;;19.87;93.08
45253;BME280;63171;50.520;30.486;2023-06-26T03:43:04;99411.13;;;19.89;92.97
45253;BME280;63171;50.520;30.486;2023-06-26T03:44:06;99405.31;;;19.86;92.97
45253;BME280;63171;50.520;30.486;2023-06-26T03:45:07;99410.78;;;19.84;93.08
45253;BME280;63171;50.520;30.486;2023-06-26T03:45:57;99413.97;;;19.63;93.10
45253;BME280;63171;50.520;30.486;2023-06-26T03:46:49;99414.09;;;19.62;93.11
45253;BME280;63171;50.520;30.486;2023-06-26T03:47:40;99416.09;;;19.68;93.42
45253;BME280;63171;50.520;30.486;2023-06-26T03:48:30;99415.94;;;19.69;94.08
45253;BME280;63171;50.520;30.486;2023-06-26T03:49:21;99406.81;;;19.72;93.66
45253;BME280;63171;50.520;30.486;2023-06-26T03:50:12;99413.94;;;19.71;94.10
45253;BME280;63171;50.520;30.486;2023-06-26T03:51:01;99411.28;;;19.63;93.92
45253;BME280;63171;50.520;30.486;2023-06-26T03:51:52;99410.78;;;19.68;94.27
45253;BME280;63171;50.520;30.486;2023-06-26T03:52:42;99413.97;;;19.63;94.08
45253;BME280;63171;50.520;30.486;2023-06-26T03:53:36;99414.09;;;19.62;94.19
45253;BME280;63171;50.520;30.486;2023-06-26T03:54:25;99408.78;;;19.62;94.54
45253;BME280;63171;50.520;30.486;2023-06-26T03:55:17;99412.75;;;19.58;94.54
45253;BME280;63171;50.520;30.486;2023-06-26T03:56:09;99413.25;;;19.61;94.63
45253;BME280;63171;50.520;30.486;2023-06-26T03:56:59;99402.63;;;19.61;94.73
45253;BME280;63171;50.520;30.486;2023-06-26T03:57:49;99410.44;;;19.63;94.80
45253;BME280;63171;50.520;30.486;2023-06-26T03:58:40;99407.94;;;19.61;94.94
45253;BME280;63171;50.520;30.486;2023-06-26T03:59:29;99405.47;;;19.60;95.25
45253;BME280;63171;50.520;30.486;2023-06-26T04:00:21;99414.78;;;19.64;95.22
45253;BME280;63171;50.520;30.486;2023-06-26T04:01:11;99406.94;;;19.62;95.19
45253;BME280;63171;50.520;30.486;2023-06-26T04:02:02;99400.59;;;19.47;95.27
45253;BME280;63171;50.520;30.486;2023-06-26T04:02:52;99407.25;;;19.43;95.18
45253;BME280;63171;50.520;30.486;2023-06-26T04:03:44;99406.41;;;19.42;95.21
45253;BME280;63171;50.520;30.486;2023-06-26T04:04:35;99404.38;;;19.36;95.50
45253;BME280;63171;50.520;30.486;2023-06-26T04:05:26;99404.88;;;19.32;95.45
45253;BME280;63171;50.520;30.486;2023-06-26T04:06:15;99394.41;;;19.22;95.63
45253;BME280;63171;50.520;30.486;2023-06-26T04:07:06;99402.69;;;19.19;95.87
45253;BME280;63171;50.520;30.486;2023-06-26T04:07:56;99405.72;;;19.24;95.84
45253;BME280;63171;50.520;30.486;2023-06-26T04:08:47;99393.91;;;19.10;95.74
45253;BME280;63171;50.520;30.486;2023-06-26T04:09:37;99393.19;;;19.00;96.16
45253;BME280;63171;50.520;30.486;2023-06-26T04:10:30;99398.66;;;18.99;96.32
45253;BME280;63171;50.520;30.486;2023-06-26T04:11:19;99399.66;;;19.06;96.51
45253;BME280;63171;50.520;30.486;2023-06-26T04:12:10;99401.31;;;19.07;96.93
45253;BME280;63171;50.520;30.486;2023-06-26T04:13:00;99396.84;;;18.99;96.71
45253;BME280;63171;50.520;30.486;2023-06-26T04:13:50;99400.16;;;19.01;97.00
45253;BME280;63171;50.520;30.486;2023-06-26T04:14:40;99397.38;;;19.11;97.72
45253;BME280;63171;50.520;30.486;2023-06-26T04:15:32;99400.03;;;19.19;97.52
45253;BME280;63171;50.520;30.486;2023-06-26T04:16:22;99396.38;;;19.20;98.12
45253;BME280;63171;50.520;30.486;2023-06-26T04:17:14;99394.09;;;19.25;98.11
45253;BME280;63171;50.520;30.486;2023-06-26T04:18:04;99389.59;;;19.17;97.99
45253;BME280;63171;50.520;30.486;2023-06-26T04:18:54;99396.22;;;19.13;98.13
45253;BME280;63171;50.520;30.486;2023-06-26T04:19:45;99397.22;;;19.12;98.15
45253;BME280;63171;50.520;30.486;2023-06-26T04:20:39;99395.72;;;19.18;98.54
45253;BME280;63171;50.520;30.486;2023-06-26T04:21:28;99397.88;;;19.14;98.40
45253;BME280;63171;50.520;30.486;2023-06-26T04:22:19;99397.75;;;19.24;98.61
45253;BME280;63171;50.520;30.486;2023-06-26T04:23:09;99394.06;;;19.17;98.55
45253;BME280;63171;50.520;30.486;2023-06-26T04:24:00;99391.25;;;19.18;98.48
45253;BME280;63171;50.520;30.486;2023-06-26T04:24:49;99385.59;;;19.22;98.55
45253;BME280;63171;50.520;30.486;2023-06-26T04:25:40;99391.13;;;19.28;98.77
45253;BME280;63171;50.520;30.486;2023-06-26T04:26:30;99389.78;;;19.24;98.63
45253;BME280;63171;50.520;30.486;2023-06-26T04:27:21;99394.94;;;19.34;98.80
45253;BME280;63171;50.520;30.486;2023-06-26T04:28:11;99393.97;;;19.43;99.29
45253;BME280;63171;50.520;30.486;2023-06-26T04:29:02;99399.28;;;19.51;99.28
45253;BME280;63171;50.520;30.486;2023-06-26T04:29:52;99399.81;;;19.63;99.38
45253;BME280;63171;50.520;30.486;2023-06-26T04:30:44;99398.50;;;19.75;99.32